Lady Mary — WCY4834 — position and weather

sailwx.info

Track history (hours):
 
Tides and Currents Weather Stations Pressure Air Temp Water Temp Dewpoint Dewpoint Depression Visibility Wind Speed Wind Dir Waves Ship Positions

Lady Mary

Owner: BLACKMAN, JOHN H, SEATTLE, WA. More information available from US FCC via Universal Licensing System and Coast Guard Vessel Documentation Center.

Last reported at 2015-Jan-31 23:31 UTC. Time now 2015-Feb-01 00:31 UTC.
Position N 47°40' W 122°13'.

Length 26 m.

Type: Passenger vessel. MMSI: 367013060.

Date/timePositionNaut miles runAvg speedWind from/ knotsBaromVisibWave heightAir tempDewpointWater temp
2015-Jan-31 23:31N 47°40' W 122°13'0 0.0
2015-Jan-31 22:32N 47°40' W 122°13'0 0.0
2015-Jan-31 21:32N 47°40' W 122°13'0 0.0
2015-Jan-31 20:24N 47°40' W 122°13'0 0.0
2015-Jan-31 19:28N 47°40' W 122°13'0 0.0
2015-Jan-31 18:31N 47°40' W 122°13'0 0.0
2015-Jan-31 17:32N 47°40' W 122°13'0 0.0
2015-Jan-31 16:33N 47°40' W 122°13'0 0.0
2015-Jan-31 15:33N 47°40' W 122°13'0 0.0
2015-Jan-31 14:25N 47°40' W 122°13'0 0.0
2015-Jan-31 13:29N 47°40' W 122°13'0 0.0
2015-Jan-31 12:32N 47°40' W 122°13'0 0.0
2015-Jan-31 11:30N 47°40' W 122°13'0 0.0
2015-Jan-31 10:28N 47°40' W 122°13'0 0.0
2015-Jan-31 09:31N 47°40' W 122°13'0 0.0
2015-Jan-31 08:32N 47°40' W 122°13'0 0.0
2015-Jan-31 07:33N 47°40' W 122°13'0 0.0
2015-Jan-31 06:33N 47°40' W 122°13'0 0.0
2015-Jan-31 05:31N 47°40' W 122°13'0 0.0
2015-Jan-31 04:32N 47°40' W 122°13'0 0.0
2015-Jan-31 04:17N 47°40' W 122°13'0 0.0
2015-Jan-31 03:32N 47°40' W 122°13'0 0.0
2015-Jan-31 02:33N 47°40' W 122°13'0 0.0
2015-Jan-31 01:28N 47°40' W 122°13'0 0.0
2015-Jan-31 00:31N 47°40' W 122°13'0 0.0
2015-Jan-30 23:32N 47°40' W 122°13'0 0.0
2015-Jan-30 22:33N 47°40' W 122°13'0 0.0
2015-Jan-30 21:30N 47°40' W 122°13'0 0.0
2015-Jan-30 20:28N 47°40' W 122°13'0 0.0
2015-Jan-30 19:32N 47°40' W 122°13'0 0.0
2015-Jan-30 18:32N 47°40' W 122°13'0 0.0
2015-Jan-30 17:24N 47°40' W 122°13'0 0.0
2015-Jan-30 16:22N 47°40' W 122°13'0 0.0
2015-Jan-30 15:31N 47°40' W 122°13'0 0.0
2015-Jan-30 14:32N 47°40' W 122°13'0 0.0
2015-Jan-30 13:33N 47°40' W 122°13'0 0.0
2015-Jan-30 12:50N 47°40' W 122°13'0 0.0
2015-Jan-30 12:32N 47°40' W 122°13'0 0.0
2015-Jan-30 11:33N 47°40' W 122°13'0 0.0
2015-Jan-30 10:25N 47°40' W 122°13'0 0.0
2015-Jan-30 09:32N 47°40' W 122°13'0 0.0
2015-Jan-30 08:29N 47°40' W 122°13'0 0.0
2015-Jan-30 07:33N 47°40' W 122°13'0 0.0
2015-Jan-30 06:25N 47°40' W 122°13'0 0.0
2015-Jan-30 05:22N 47°40' W 122°13'0 0.0
2015-Jan-30 04:32N 47°40' W 122°13'0 0.0
2015-Jan-30 03:33N 47°40' W 122°13'0 0.0
2015-Jan-30 02:33N 47°40' W 122°13'0 0.0
2015-Jan-30 01:31N 47°40' W 122°13'0 0.0
2015-Jan-30 00:29N 47°40' W 122°13'0 0.0
2015-Jan-29 23:32N 47°40' W 122°13'0 0.0
2015-Jan-29 22:30N 47°40' W 122°13'0 0.0
2015-Jan-29 21:31N 47°40' W 122°13'0 0.0
2015-Jan-29 20:31N 47°40' W 122°13'0 0.0
2015-Jan-29 19:32N 47°40' W 122°13'0 0.0
2015-Jan-29 18:33N 47°40' W 122°13'0 0.0
2015-Jan-29 17:33N 47°40' W 122°13'0 0.0
2015-Jan-29 16:31N 47°40' W 122°13'0 0.0
2015-Jan-29 15:32N 47°40' W 122°13'0 0.0
2015-Jan-29 14:32N 47°40' W 122°13'0 0.0
2015-Jan-29 13:24N 47°40' W 122°13'0 0.0
2015-Jan-29 12:31N 47°40' W 122°13'0 0.0
2015-Jan-29 11:31N 47°40' W 122°13'0 0.0
2015-Jan-29 10:32N 47°40' W 122°13'0 0.0
2015-Jan-29 09:33N 47°40' W 122°13'0 0.0
2015-Jan-29 08:30N 47°40' W 122°13'0 0.0
2015-Jan-29 07:28N 47°40' W 122°13'0 0.0
2015-Jan-29 06:32N 47°40' W 122°13'2 6.3
2015-Jan-29 06:16N 47°40' W 122°15'4 4.9
2015-Jan-29 05:24N 47°38' W 122°20'0 0.0
2015-Jan-29 04:55N 47°38' W 122°20'1 3.6
2015-Jan-29 04:33N 47°39' W 122°20'2 4.3
2015-Jan-29 04:05N 47°39' W 122°17'2 3.6
2015-Jan-29 03:33N 47°39' W 122°20'0 5.5
2015-Jan-29 03:30N 47°39' W 122°20'1 1.1
2015-Jan-29 02:33N 47°39' W 122°21'0 5.4
2015-Jan-29 02:30N 47°39' W 122°21'1 0.9
2015-Jan-29 01:13N 47°38' W 122°20'0 0.0
2015-Jan-29 01:04N 47°38' W 122°20'0 0.0
2015-Jan-29 00:31N 47°38' W 122°20'0 0.0
2015-Jan-29 00:30N 47°38' W 122°20'6 6.1
2015-Jan-28 23:33N 47°40' W 122°13'0 0.2
2015-Jan-28 22:31N 47°40' W 122°13'0 0.0
2015-Jan-28 21:29N 47°40' W 122°13'0 0.0
2015-Jan-28 20:29N 47°40' W 122°13'0 0.0
2015-Jan-28 20:23N 47°40' W 122°13'0 0.0
2015-Jan-28 19:33N 47°40' W 122°13'0 0.0
2015-Jan-28 18:28N 47°40' W 122°13'0 0.0
2015-Jan-28 17:31N 47°40' W 122°13'0 0.0
2015-Jan-28 16:26N 47°40' W 122°13'0 0.0
2015-Jan-28 15:33N 47°40' W 122°13'0 0.0
2015-Jan-28 14:27N 47°40' W 122°13'0 0.0
2015-Jan-28 13:31N 47°40' W 122°13'0 0.0
2015-Jan-28 12:32N 47°40' W 122°13'0 0.0
2015-Jan-28 11:32N 47°40' W 122°13'0 0.0
2015-Jan-28 10:33N 47°40' W 122°13'0 0.0
2015-Jan-28 09:31N 47°40' W 122°13'0 0.0
2015-Jan-28 08:31N 47°40' W 122°13'0 0.0
2015-Jan-28 07:32N 47°40' W 122°13'0 0.0
2015-Jan-28 06:33N 47°40' W 122°13'0 0.0
2015-Jan-28 05:33N 47°40' W 122°13'0 0.0
2015-Jan-28 04:31N 47°40' W 122°13'0 0.0
2015-Jan-28 03:29N 47°40' W 122°13'0 0.0
2015-Jan-28 02:32N 47°40' W 122°13'0 0.0
2015-Jan-28 01:33N 47°40' W 122°13'0 0.0
2015-Jan-28 00:31N 47°40' W 122°13'0 0.0
2015-Jan-27 23:28N 47°40' W 122°13'0 0.0
2015-Jan-27 22:29N 47°40' W 122°13'0 0.0
2015-Jan-27 21:33N 47°40' W 122°13'0 0.0
2015-Jan-27 20:30N 47°40' W 122°13'0 0.0
2015-Jan-27 19:31N 47°40' W 122°13'0 0.0
2015-Jan-27 18:32N 47°40' W 122°13'0 0.0
2015-Jan-27 17:32N 47°40' W 122°13'0 0.0
2015-Jan-27 16:33N 47°40' W 122°13'0 0.0
2015-Jan-27 15:31N 47°40' W 122°13'0 0.0
2015-Jan-27 14:26N 47°40' W 122°13'0 0.0
2015-Jan-27 13:32N 47°40' W 122°13'0 0.0
2015-Jan-27 12:33N 47°40' W 122°13'0 0.0
2015-Jan-27 11:34N 47°40' W 122°13'0 0.0
2015-Jan-27 10:28N 47°40' W 122°13'0 0.0
2015-Jan-27 09:29N 47°40' W 122°13'0 0.0
2015-Jan-27 08:30N 47°40' W 122°13'0 0.0
2015-Jan-27 07:30N 47°40' W 122°13'0 0.0
2015-Jan-27 06:31N 47°40' W 122°13'0 0.0
2015-Jan-27 05:32N 47°40' W 122°13'0 0.0
2015-Jan-27 04:29N 47°40' W 122°13'0 0.0
2015-Jan-27 03:30N 47°40' W 122°13'0 0.0
2015-Jan-27 02:31N 47°40' W 122°13'0 0.0
2015-Jan-27 01:31N 47°40' W 122°13'0 0.0
2015-Jan-27 00:32N 47°40' W 122°13'0 0.0
2015-Jan-26 23:33N 47°40' W 122°13'0 0.0
2015-Jan-26 22:33N 47°40' W 122°13'0 0.0
2015-Jan-26 21:28N 47°40' W 122°13'0 0.0
2015-Jan-26 20:32N 47°40' W 122°13'0 0.0
2015-Jan-26 19:26N 47°40' W 122°13'0 0.0
2015-Jan-26 18:33N 47°40' W 122°13'0 0.0
2015-Jan-26 17:28N 47°40' W 122°13'0 0.0
2015-Jan-26 16:31N 47°40' W 122°13'0 0.0
2015-Jan-26 15:29N 47°40' W 122°13'0 0.0
2015-Jan-26 14:30N 47°40' W 122°13'0 0.0
2015-Jan-26 13:33N 47°40' W 122°13'0 0.0
2015-Jan-26 12:31N 47°40' W 122°13'0 0.0
2015-Jan-26 11:32N 47°40' W 122°13'0 0.0
2015-Jan-26 10:32N 47°40' W 122°13'0 0.0
2015-Jan-26 09:33N 47°40' W 122°13'0 0.0
2015-Jan-26 08:25N 47°40' W 122°13'0 0.0
2015-Jan-26 07:31N 47°40' W 122°13'0 0.0
2015-Jan-26 06:32N 47°40' W 122°13'0 0.0
2015-Jan-26 05:27N 47°40' W 122°13'0 0.0
2015-Jan-26 04:33N 47°40' W 122°13'0 0.0
2015-Jan-26 03:31N 47°40' W 122°13'0 0.0
2015-Jan-26 01:32N 47°40' W 122°13'0 0.0
2015-Jan-26 00:18N 47°40' W 122°13'0 0.0
2015-Jan-25 23:31N 47°40' W 122°13'0 0.0
2015-Jan-25 22:25N 47°40' W 122°13'0 0.0
2015-Jan-25 21:26N 47°40' W 122°13'0 0.0
2015-Jan-25 20:30N 47°40' W 122°13'0 0.0
2015-Jan-25 19:33N 47°40' W 122°13'0 0.0
2015-Jan-25 18:31N 47°40' W 122°13'0 0.0
2015-Jan-25 17:26N 47°40' W 122°13'0 0.0
2015-Jan-25 16:32N 47°40' W 122°13'0 0.0
2015-Jan-25 15:30N 47°40' W 122°13'0 0.0
2015-Jan-25 14:31N 47°40' W 122°13'0 0.0
2015-Jan-25 13:31N 47°40' W 122°13'0 0.0
2015-Jan-25 12:29N 47°40' W 122°13'0 0.0
2015-Jan-25 11:30N 47°40' W 122°13'0 0.0
2015-Jan-25 10:33N 47°40' W 122°13'0 0.0
2015-Jan-25 09:31N 47°40' W 122°13'0 0.0
2015-Jan-25 09:25N 47°40' W 122°13'0 0.0
2015-Jan-25 08:32N 47°40' W 122°13'0 0.0
2015-Jan-25 07:27N 47°40' W 122°13'0 0.0
2015-Jan-25 06:45N 47°40' W 122°13'0 0.0
2015-Jan-25 06:33N 47°40' W 122°13'0 0.4
2015-Jan-25 05:31N 47°41' W 122°13'0 2.6
2015-Jan-25 05:25N 47°41' W 122°13'2 1.8
2015-Jan-25 04:33N 47°39' W 122°14'0 5.0
2015-Jan-25 04:29N 47°39' W 122°13'1 1.2
2015-Jan-25 03:33N 47°40' W 122°13'0 0.0
2015-Jan-25 02:31N 47°40' W 122°13'0 0.0
2015-Jan-25 02:28N 47°40' W 122°13'0 0.0
2015-Jan-25 01:32N 47°40' W 122°13'0 0.0
2015-Jan-25 00:32N 47°40' W 122°13'0 0.0
2015-Jan-24 23:30N 47°40' W 122°13'0 0.0
2015-Jan-24 22:28N 47°40' W 122°13'0 0.0
2015-Jan-24 21:28N 47°40' W 122°13'0 0.0
2015-Jan-24 20:32N 47°40' W 122°13'0 0.0
2015-Jan-24 19:30N 47°40' W 122°13'0 0.0
2015-Jan-24 18:33N 47°40' W 122°13'0 0.0
2015-Jan-24 17:31N 47°40' W 122°13'0 0.0
2015-Jan-24 16:32N 47°40' W 122°13'0 0.0
2015-Jan-24 15:32N 47°40' W 122°13'0 0.0
2015-Jan-24 14:33N 47°40' W 122°13'0 0.0
2015-Jan-24 13:31N 47°40' W 122°13'0 0.0
2015-Jan-24 12:31N 47°40' W 122°13'0 0.0
2015-Jan-24 11:32N 47°40' W 122°13'0 0.0
2015-Jan-24 10:33N 47°40' W 122°13'0 0.0
2015-Jan-24 10:15N 47°40' W 122°13'0 0.0
2015-Jan-24 09:33N 47°40' W 122°13'0 0.0
2015-Jan-24 08:31N 47°40' W 122°13'0 0.0
2015-Jan-24 07:32N 47°40' W 122°13'0 0.0
2015-Jan-24 06:32N 47°40' W 122°13'1 1.9
2015-Jan-24 06:15N 47°40' W 122°13'5 6.6
2015-Jan-24 05:33N 47°39' W 122°20'0 5.1
2015-Jan-24 05:30N 47°39' W 122°20'1 1.3
2015-Jan-24 04:33N 47°39' W 122°18'1 6.6
2015-Jan-24 04:25N 47°39' W 122°17'3 3.6
2015-Jan-24 03:33N 47°40' W 122°13'0 0.0
2015-Jan-24 02:33N 47°40' W 122°13'0 0.1
2015-Jan-24 01:38N 47°40' W 122°13'0 0.5
2015-Jan-24 01:31N 47°40' W 122°13'0 0.0
2015-Jan-24 00:32N 47°40' W 122°13'0 0.0
2015-Jan-23 23:33N 47°40' W 122°13'0 0.0
2015-Jan-23 22:33N 47°40' W 122°13'0 0.0
2015-Jan-23 21:52N 47°40' W 122°13'0 0.0
2015-Jan-23 21:28N 47°40' W 122°13'0 0.0
2015-Jan-23 20:32N 47°40' W 122°13'0 0.0
2015-Jan-23 19:32N 47°40' W 122°13'0 0.0
2015-Jan-23 18:33N 47°40' W 122°13'0 0.0
2015-Jan-23 17:34N 47°40' W 122°13'0 0.0
2015-Jan-23 16:31N 47°40' W 122°13'0 0.0
2015-Jan-23 15:32N 47°40' W 122°13'0 0.0
2015-Jan-23 14:30N 47°40' W 122°13'0 0.0
2015-Jan-23 13:33N 47°40' W 122°13'0 0.0
2015-Jan-23 12:31N 47°40' W 122°13'0 0.0
2015-Jan-23 11:32N 47°40' W 122°13'0 0.0
2015-Jan-23 10:29N 47°40' W 122°13'0 0.0
2015-Jan-23 10:29N 47°40' W 122°13'0 0.0
2015-Jan-23 09:33N 47°40' W 122°13'0 0.0
2015-Jan-23 08:31N 47°40' W 122°13'0 0.0
2015-Jan-23 07:31N 47°40' W 122°13'0 0.0
2015-Jan-23 06:32N 47°40' W 122°13'0 0.0
2015-Jan-23 05:30N 47°40' W 122°13'0 0.0
2015-Jan-23 04:30N 47°40' W 122°13'0 0.0
2015-Jan-23 03:31N 47°40' W 122°13'0 0.0
2015-Jan-23 02:32N 47°40' W 122°13'0 0.0
2015-Jan-23 01:33N 47°40' W 122°13'0 0.0
2015-Jan-23 00:33N 47°40' W 122°13'0 0.0
2015-Jan-22 23:31N 47°40' W 122°13'0 0.0
2015-Jan-22 22:31N 47°40' W 122°13'0 0.0
2015-Jan-22 21:32N 47°40' W 122°13'0 0.0
2015-Jan-22 20:33N 47°40' W 122°13'0 0.0
2015-Jan-22 19:33N 47°40' W 122°13'0 0.0
2015-Jan-22 19:15N 47°40' W 122°13'0 0.0
2015-Jan-22 18:31N 47°40' W 122°13'0 0.0
2015-Jan-22 17:29N 47°40' W 122°13'0 0.0
2015-Jan-22 16:32N 47°40' W 122°13'0 0.0
2015-Jan-22 15:33N 47°40' W 122°13'0 0.0
2015-Jan-22 14:31N 47°40' W 122°13'0 0.0
2015-Jan-22 13:31N 47°40' W 122°13'0 0.0
2015-Jan-22 12:32N 47°40' W 122°13'0 0.0
2015-Jan-22 11:33N 47°40' W 122°13'0 0.0
2015-Jan-22 10:33N 47°40' W 122°13'0 0.0
2015-Jan-22 10:10N 47°40' W 122°13'0 0.0
2015-Jan-22 09:28N 47°40' W 122°13'0 0.0
2015-Jan-22 08:23N 47°40' W 122°13'0 0.0
2015-Jan-22 07:32N 47°40' W 122°13'0 0.0
2015-Jan-22 06:27N 47°40' W 122°13'0 0.0
2015-Jan-22 05:31N 47°40' W 122°13'0 0.0
2015-Jan-22 04:31N 47°40' W 122°13'0 0.0
2015-Jan-22 03:32N 47°40' W 122°13'0 0.0
2015-Jan-22 02:30N 47°40' W 122°13'0 0.0
2015-Jan-22 01:30N 47°40' W 122°13'0 0.0
2015-Jan-22 00:28N 47°40' W 122°13'  
Track history (hours):
 
Tides and Currents Weather Stations Pressure Air Temp Water Temp Dewpoint Dewpoint Depression Visibility Wind Speed Wind Dir Waves Ship Positions

Lady Mary

Owner: BLACKMAN, JOHN H, SEATTLE, WA. More information available from US FCC via Universal Licensing System and Coast Guard Vessel Documentation Center.

Last reported at 2015-Jan-31 23:31 UTC. Time now 2015-Feb-01 00:31 UTC.
Position N 47°40' W 122°13'.

Length 26 m.

Type: Passenger vessel. MMSI: 367013060.

Date/timePositionNaut miles runAvg speedWind from/ knotsBaromVisibWave heightAir tempDewpointWater temp
2015-Jan-31 23:31N 47°40' W 122°13'0 0.0
2015-Jan-31 22:32N 47°40' W 122°13'0 0.0
2015-Jan-31 21:32N 47°40' W 122°13'0 0.0
2015-Jan-31 20:24N 47°40' W 122°13'0 0.0
2015-Jan-31 19:28N 47°40' W 122°13'0 0.0
2015-Jan-31 18:31N 47°40' W 122°13'0 0.0
2015-Jan-31 17:32N 47°40' W 122°13'0 0.0
2015-Jan-31 16:33N 47°40' W 122°13'0 0.0
2015-Jan-31 15:33N 47°40' W 122°13'0 0.0
2015-Jan-31 14:25N 47°40' W 122°13'0 0.0
2015-Jan-31 13:29N 47°40' W 122°13'0 0.0
2015-Jan-31 12:32N 47°40' W 122°13'0 0.0
2015-Jan-31 11:30N 47°40' W 122°13'0 0.0
2015-Jan-31 10:28N 47°40' W 122°13'0 0.0
2015-Jan-31 09:31N 47°40' W 122°13'0 0.0
2015-Jan-31 08:32N 47°40' W 122°13'0 0.0
2015-Jan-31 07:33N 47°40' W 122°13'0 0.0
2015-Jan-31 06:33N 47°40' W 122°13'0 0.0
2015-Jan-31 05:31N 47°40' W 122°13'0 0.0
2015-Jan-31 04:32N 47°40' W 122°13'0 0.0
2015-Jan-31 04:17N 47°40' W 122°13'0 0.0
2015-Jan-31 03:32N 47°40' W 122°13'0 0.0
2015-Jan-31 02:33N 47°40' W 122°13'0 0.0
2015-Jan-31 01:28N 47°40' W 122°13'0 0.0
2015-Jan-31 00:31N 47°40' W 122°13'0 0.0
2015-Jan-30 23:32N 47°40' W 122°13'0 0.0
2015-Jan-30 22:33N 47°40' W 122°13'0 0.0
2015-Jan-30 21:30N 47°40' W 122°13'0 0.0
2015-Jan-30 20:28N 47°40' W 122°13'0 0.0
2015-Jan-30 19:32N 47°40' W 122°13'0 0.0
2015-Jan-30 18:32N 47°40' W 122°13'0 0.0
2015-Jan-30 17:24N 47°40' W 122°13'0 0.0
2015-Jan-30 16:22N 47°40' W 122°13'0 0.0
2015-Jan-30 15:31N 47°40' W 122°13'0 0.0
2015-Jan-30 14:32N 47°40' W 122°13'0 0.0
2015-Jan-30 13:33N 47°40' W 122°13'0 0.0
2015-Jan-30 12:50N 47°40' W 122°13'0 0.0
2015-Jan-30 12:32N 47°40' W 122°13'0 0.0
2015-Jan-30 11:33N 47°40' W 122°13'0 0.0
2015-Jan-30 10:25N 47°40' W 122°13'0 0.0
2015-Jan-30 09:32N 47°40' W 122°13'0 0.0
2015-Jan-30 08:29N 47°40' W 122°13'0 0.0
2015-Jan-30 07:33N 47°40' W 122°13'0 0.0
2015-Jan-30 06:25N 47°40' W 122°13'0 0.0
2015-Jan-30 05:22N 47°40' W 122°13'0 0.0
2015-Jan-30 04:32N 47°40' W 122°13'0 0.0
2015-Jan-30 03:33N 47°40' W 122°13'0 0.0
2015-Jan-30 02:33N 47°40' W 122°13'0 0.0
2015-Jan-30 01:31N 47°40' W 122°13'0 0.0
2015-Jan-30 00:29N 47°40' W 122°13'0 0.0
2015-Jan-29 23:32N 47°40' W 122°13'0 0.0
2015-Jan-29 22:30N 47°40' W 122°13'0 0.0
2015-Jan-29 21:31N 47°40' W 122°13'0 0.0
2015-Jan-29 20:31N 47°40' W 122°13'0 0.0
2015-Jan-29 19:32N 47°40' W 122°13'0 0.0
2015-Jan-29 18:33N 47°40' W 122°13'0 0.0
2015-Jan-29 17:33N 47°40' W 122°13'0 0.0
2015-Jan-29 16:31N 47°40' W 122°13'0 0.0
2015-Jan-29 15:32N 47°40' W 122°13'0 0.0
2015-Jan-29 14:32N 47°40' W 122°13'0 0.0
2015-Jan-29 13:24N 47°40' W 122°13'0 0.0
2015-Jan-29 12:31N 47°40' W 122°13'0 0.0
2015-Jan-29 11:31N 47°40' W 122°13'0 0.0
2015-Jan-29 10:32N 47°40' W 122°13'0 0.0
2015-Jan-29 09:33N 47°40' W 122°13'0 0.0
2015-Jan-29 08:30N 47°40' W 122°13'0 0.0
2015-Jan-29 07:28N 47°40' W 122°13'0 0.0
2015-Jan-29 06:32N 47°40' W 122°13'2 6.3
2015-Jan-29 06:16N 47°40' W 122°15'4 4.9
2015-Jan-29 05:24N 47°38' W 122°20'0 0.0
2015-Jan-29 04:55N 47°38' W 122°20'1 3.6
2015-Jan-29 04:33N 47°39' W 122°20'2 4.3
2015-Jan-29 04:05N 47°39' W 122°17'2 3.6
2015-Jan-29 03:33N 47°39' W 122°20'0 5.5
2015-Jan-29 03:30N 47°39' W 122°20'1 1.1
2015-Jan-29 02:33N 47°39' W 122°21'0 5.4
2015-Jan-29 02:30N 47°39' W 122°21'1 0.9
2015-Jan-29 01:13N 47°38' W 122°20'0 0.0
2015-Jan-29 01:04N 47°38' W 122°20'0 0.0
2015-Jan-29 00:31N 47°38' W 122°20'0 0.0
2015-Jan-29 00:30N 47°38' W 122°20'6 6.1
2015-Jan-28 23:33N 47°40' W 122°13'0 0.2
2015-Jan-28 22:31N 47°40' W 122°13'0 0.0
2015-Jan-28 21:29N 47°40' W 122°13'0 0.0
2015-Jan-28 20:29N 47°40' W 122°13'0 0.0
2015-Jan-28 20:23N 47°40' W 122°13'0 0.0
2015-Jan-28 19:33N 47°40' W 122°13'0 0.0
2015-Jan-28 18:28N 47°40' W 122°13'0 0.0
2015-Jan-28 17:31N 47°40' W 122°13'0 0.0
2015-Jan-28 16:26N 47°40' W 122°13'0 0.0
2015-Jan-28 15:33N 47°40' W 122°13'0 0.0
2015-Jan-28 14:27N 47°40' W 122°13'0 0.0
2015-Jan-28 13:31N 47°40' W 122°13'0 0.0
2015-Jan-28 12:32N 47°40' W 122°13'0 0.0
2015-Jan-28 11:32N 47°40' W 122°13'0 0.0
2015-Jan-28 10:33N 47°40' W 122°13'0 0.0
2015-Jan-28 09:31N 47°40' W 122°13'0 0.0
2015-Jan-28 08:31N 47°40' W 122°13'0 0.0
2015-Jan-28 07:32N 47°40' W 122°13'0 0.0
2015-Jan-28 06:33N 47°40' W 122°13'0 0.0
2015-Jan-28 05:33N 47°40' W 122°13'0 0.0
2015-Jan-28 04:31N 47°40' W 122°13'0 0.0
2015-Jan-28 03:29N 47°40' W 122°13'0 0.0
2015-Jan-28 02:32N 47°40' W 122°13'0 0.0
2015-Jan-28 01:33N 47°40' W 122°13'0 0.0
2015-Jan-28 00:31N 47°40' W 122°13'0 0.0
2015-Jan-27 23:28N 47°40' W 122°13'0 0.0
2015-Jan-27 22:29N 47°40' W 122°13'0 0.0
2015-Jan-27 21:33N 47°40' W 122°13'0 0.0
2015-Jan-27 20:30N 47°40' W 122°13'0 0.0
2015-Jan-27 19:31N 47°40' W 122°13'0 0.0
2015-Jan-27 18:32N 47°40' W 122°13'0 0.0
2015-Jan-27 17:32N 47°40' W 122°13'0 0.0
2015-Jan-27 16:33N 47°40' W 122°13'0 0.0
2015-Jan-27 15:31N 47°40' W 122°13'0 0.0
2015-Jan-27 14:26N 47°40' W 122°13'0 0.0
2015-Jan-27 13:32N 47°40' W 122°13'0 0.0
2015-Jan-27 12:33N 47°40' W 122°13'0 0.0
2015-Jan-27 11:34N 47°40' W 122°13'0 0.0
2015-Jan-27 10:28N 47°40' W 122°13'0 0.0
2015-Jan-27 09:29N 47°40' W 122°13'0 0.0
2015-Jan-27 08:30N 47°40' W 122°13'0 0.0
2015-Jan-27 07:30N 47°40' W 122°13'0 0.0
2015-Jan-27 06:31N 47°40' W 122°13'0 0.0
2015-Jan-27 05:32N 47°40' W 122°13'0 0.0
2015-Jan-27 04:29N 47°40' W 122°13'0 0.0
2015-Jan-27 03:30N 47°40' W 122°13'0 0.0
2015-Jan-27 02:31N 47°40' W 122°13'0 0.0
2015-Jan-27 01:31N 47°40' W 122°13'0 0.0
2015-Jan-27 00:32N 47°40' W 122°13'0 0.0
2015-Jan-26 23:33N 47°40' W 122°13'0 0.0
2015-Jan-26 22:33N 47°40' W 122°13'0 0.0
2015-Jan-26 21:28N 47°40' W 122°13'0 0.0
2015-Jan-26 20:32N 47°40' W 122°13'0 0.0
2015-Jan-26 19:26N 47°40' W 122°13'0 0.0
2015-Jan-26 18:33N 47°40' W 122°13'0 0.0
2015-Jan-26 17:28N 47°40' W 122°13'0 0.0
2015-Jan-26 16:31N 47°40' W 122°13'0 0.0
2015-Jan-26 15:29N 47°40' W 122°13'0 0.0
2015-Jan-26 14:30N 47°40' W 122°13'0 0.0
2015-Jan-26 13:33N 47°40' W 122°13'0 0.0
2015-Jan-26 12:31N 47°40' W 122°13'0 0.0
2015-Jan-26 11:32N 47°40' W 122°13'0 0.0
2015-Jan-26 10:32N 47°40' W 122°13'0 0.0
2015-Jan-26 09:33N 47°40' W 122°13'0 0.0
2015-Jan-26 08:25N 47°40' W 122°13'0 0.0
2015-Jan-26 07:31N 47°40' W 122°13'0 0.0
2015-Jan-26 06:32N 47°40' W 122°13'0 0.0
2015-Jan-26 05:27N 47°40' W 122°13'0 0.0
2015-Jan-26 04:33N 47°40' W 122°13'0 0.0
2015-Jan-26 03:31N 47°40' W 122°13'0 0.0
2015-Jan-26 01:32N 47°40' W 122°13'0 0.0
2015-Jan-26 00:18N 47°40' W 122°13'0 0.0
2015-Jan-25 23:31N 47°40' W 122°13'0 0.0
2015-Jan-25 22:25N 47°40' W 122°13'0 0.0
2015-Jan-25 21:26N 47°40' W 122°13'0 0.0
2015-Jan-25 20:30N 47°40' W 122°13'0 0.0
2015-Jan-25 19:33N 47°40' W 122°13'0 0.0
2015-Jan-25 18:31N 47°40' W 122°13'0 0.0
2015-Jan-25 17:26N 47°40' W 122°13'0 0.0
2015-Jan-25 16:32N 47°40' W 122°13'0 0.0
2015-Jan-25 15:30N 47°40' W 122°13'0 0.0
2015-Jan-25 14:31N 47°40' W 122°13'0 0.0
2015-Jan-25 13:31N 47°40' W 122°13'0 0.0
2015-Jan-25 12:29N 47°40' W 122°13'0 0.0
2015-Jan-25 11:30N 47°40' W 122°13'0 0.0
2015-Jan-25 10:33N 47°40' W 122°13'0 0.0
2015-Jan-25 09:31N 47°40' W 122°13'0 0.0
2015-Jan-25 09:25N 47°40' W 122°13'0 0.0
2015-Jan-25 08:32N 47°40' W 122°13'0 0.0
2015-Jan-25 07:27N 47°40' W 122°13'0 0.0
2015-Jan-25 06:45N 47°40' W 122°13'0 0.0
2015-Jan-25 06:33N 47°40' W 122°13'0 0.4
2015-Jan-25 05:31N 47°41' W 122°13'0 2.6
2015-Jan-25 05:25N 47°41' W 122°13'2 1.8
2015-Jan-25 04:33N 47°39' W 122°14'0 5.0
2015-Jan-25 04:29N 47°39' W 122°13'1 1.2
2015-Jan-25 03:33N 47°40' W 122°13'0 0.0
2015-Jan-25 02:31N 47°40' W 122°13'0 0.0
2015-Jan-25 02:28N 47°40' W 122°13'0 0.0
2015-Jan-25 01:32N 47°40' W 122°13'0 0.0
2015-Jan-25 00:32N 47°40' W 122°13'0 0.0
2015-Jan-24 23:30N 47°40' W 122°13'0 0.0
2015-Jan-24 22:28N 47°40' W 122°13'0 0.0
2015-Jan-24 21:28N 47°40' W 122°13'0 0.0
2015-Jan-24 20:32N 47°40' W 122°13'0 0.0
2015-Jan-24 19:30N 47°40' W 122°13'0 0.0
2015-Jan-24 18:33N 47°40' W 122°13'0 0.0
2015-Jan-24 17:31N 47°40' W 122°13'0 0.0
2015-Jan-24 16:32N 47°40' W 122°13'0 0.0
2015-Jan-24 15:32N 47°40' W 122°13'0 0.0
2015-Jan-24 14:33N 47°40' W 122°13'0 0.0
2015-Jan-24 13:31N 47°40' W 122°13'0 0.0
2015-Jan-24 12:31N 47°40' W 122°13'0 0.0
2015-Jan-24 11:32N 47°40' W 122°13'0 0.0
2015-Jan-24 10:33N 47°40' W 122°13'0 0.0
2015-Jan-24 10:15N 47°40' W 122°13'0 0.0
2015-Jan-24 09:33N 47°40' W 122°13'0 0.0
2015-Jan-24 08:31N 47°40' W 122°13'0 0.0
2015-Jan-24 07:32N 47°40' W 122°13'0 0.0
2015-Jan-24 06:32N 47°40' W 122°13'1 1.9
2015-Jan-24 06:15N 47°40' W 122°13'5 6.6
2015-Jan-24 05:33N 47°39' W 122°20'0 5.1
2015-Jan-24 05:30N 47°39' W 122°20'1 1.3
2015-Jan-24 04:33N 47°39' W 122°18'1 6.6
2015-Jan-24 04:25N 47°39' W 122°17'3 3.6
2015-Jan-24 03:33N 47°40' W 122°13'0 0.0
2015-Jan-24 02:33N 47°40' W 122°13'0 0.1
2015-Jan-24 01:38N 47°40' W 122°13'0 0.5
2015-Jan-24 01:31N 47°40' W 122°13'0 0.0
2015-Jan-24 00:32N 47°40' W 122°13'0 0.0
2015-Jan-23 23:33N 47°40' W 122°13'0 0.0
2015-Jan-23 22:33N 47°40' W 122°13'0 0.0
2015-Jan-23 21:52N 47°40' W 122°13'0 0.0
2015-Jan-23 21:28N 47°40' W 122°13'0 0.0
2015-Jan-23 20:32N 47°40' W 122°13'0 0.0
2015-Jan-23 19:32N 47°40' W 122°13'0 0.0
2015-Jan-23 18:33N 47°40' W 122°13'0 0.0
2015-Jan-23 17:34N 47°40' W 122°13'0 0.0
2015-Jan-23 16:31N 47°40' W 122°13'0 0.0
2015-Jan-23 15:32N 47°40' W 122°13'0 0.0
2015-Jan-23 14:30N 47°40' W 122°13'0 0.0
2015-Jan-23 13:33N 47°40' W 122°13'0 0.0
2015-Jan-23 12:31N 47°40' W 122°13'0 0.0
2015-Jan-23 11:32N 47°40' W 122°13'0 0.0
2015-Jan-23 10:29N 47°40' W 122°13'0 0.0
2015-Jan-23 10:29N 47°40' W 122°13'0 0.0
2015-Jan-23 09:33N 47°40' W 122°13'0 0.0
2015-Jan-23 08:31N 47°40' W 122°13'0 0.0
2015-Jan-23 07:31N 47°40' W 122°13'0 0.0
2015-Jan-23 06:32N 47°40' W 122°13'0 0.0
2015-Jan-23 05:30N 47°40' W 122°13'0 0.0
2015-Jan-23 04:30N 47°40' W 122°13'0 0.0
2015-Jan-23 03:31N 47°40' W 122°13'0 0.0
2015-Jan-23 02:32N 47°40' W 122°13'0 0.0
2015-Jan-23 01:33N 47°40' W 122°13'0 0.0
2015-Jan-23 00:33N 47°40' W 122°13'0 0.0
2015-Jan-22 23:31N 47°40' W 122°13'0 0.0
2015-Jan-22 22:31N 47°40' W 122°13'0 0.0
2015-Jan-22 21:32N 47°40' W 122°13'0 0.0
2015-Jan-22 20:33N 47°40' W 122°13'0 0.0
2015-Jan-22 19:33N 47°40' W 122°13'0 0.0
2015-Jan-22 19:15N 47°40' W 122°13'0 0.0
2015-Jan-22 18:31N 47°40' W 122°13'0 0.0
2015-Jan-22 17:29N 47°40' W 122°13'0 0.0
2015-Jan-22 16:32N 47°40' W 122°13'0 0.0
2015-Jan-22 15:33N 47°40' W 122°13'0 0.0
2015-Jan-22 14:31N 47°40' W 122°13'0 0.0
2015-Jan-22 13:31N 47°40' W 122°13'0 0.0
2015-Jan-22 12:32N 47°40' W 122°13'0 0.0
2015-Jan-22 11:33N 47°40' W 122°13'0 0.0
2015-Jan-22 10:33N 47°40' W 122°13'0 0.0
2015-Jan-22 10:10N 47°40' W 122°13'0 0.0
2015-Jan-22 09:28N 47°40' W 122°13'0 0.0
2015-Jan-22 08:23N 47°40' W 122°13'0 0.0
2015-Jan-22 07:32N 47°40' W 122°13'0 0.0
2015-Jan-22 06:27N 47°40' W 122°13'0 0.0
2015-Jan-22 05:31N 47°40' W 122°13'0 0.0
2015-Jan-22 04:31N 47°40' W 122°13'0 0.0
2015-Jan-22 03:32N 47°40' W 122°13'0 0.0
2015-Jan-22 02:30N 47°40' W 122°13'0 0.0
2015-Jan-22 01:30N 47°40' W 122°13'0 0.0
2015-Jan-22 00:28N 47°40' W 122°13'  

Dump ship's entire track history